createdAt,value
2019-04-14T00:00:21.195Z,0.58
2019-04-14T00:01:21.636Z,0.58
2019-04-14T00:02:21.164Z,0.58
2019-04-14T00:03:21.604Z,0.58
2019-04-14T00:04:22.486Z,0.55
2019-04-14T00:05:21.155Z,0.52
2019-04-14T00:06:22.304Z,0.49
2019-04-14T00:07:21.141Z,0.48
2019-04-14T00:08:22.030Z,0.47
2019-04-14T00:09:21.142Z,0.44
2019-04-14T00:10:21.098Z,0.44
2019-04-14T00:11:21.262Z,0.37
2019-04-14T00:12:21.090Z,0.36
2019-04-14T00:13:21.760Z,0.33
2019-04-14T00:14:21.070Z,0.34
2019-04-14T00:15:29.441Z,0.34
2019-04-14T00:16:22.771Z,0.34
2019-04-14T00:17:21.637Z,0.33
2019-04-14T00:18:21.019Z,0.33
2019-04-14T00:19:21.726Z,0.31
2019-04-14T00:20:21.005Z,0.30
2019-04-14T00:21:21.535Z,0.29
2019-04-14T00:22:20.962Z,0.31
2019-04-14T00:23:21.560Z,0.31
2019-04-14T00:24:21.027Z,0.29
2019-04-14T00:25:21.613Z,0.29
2019-04-14T00:26:20.907Z,0.30
2019-04-14T00:27:21.424Z,0.26
2019-04-14T00:28:20.917Z,0.23
2019-04-14T00:29:21.727Z,0.23
2019-04-14T00:30:20.908Z,0.26
2019-04-14T00:31:21.657Z,0.24
2019-04-14T00:32:20.873Z,0.24
2019-04-14T00:33:21.400Z,0.26
2019-04-14T00:34:20.876Z,0.27
2019-04-14T00:35:21.056Z,0.29
2019-04-14T00:36:21.828Z,0.31
2019-04-14T00:37:20.815Z,0.34
2019-04-14T00:38:21.778Z,0.36
2019-04-14T00:39:22.552Z,0.37
2019-04-14T00:40:21.537Z,0.39
2019-04-14T00:41:33.790Z,0.40
2019-04-14T00:42:21.757Z,0.44
2019-04-14T00:43:21.841Z,0.45
2019-04-14T00:44:21.041Z,0.48
2019-04-14T00:45:32.232Z,0.49
2019-04-14T00:46:21.702Z,0.52
2019-04-14T00:47:20.697Z,0.55
2019-04-14T00:48:22.285Z,0.56
2019-04-14T00:49:20.706Z,0.58
2019-04-14T00:50:21.118Z,0.58
2019-04-14T00:51:21.992Z,0.58
2019-04-14T00:52:21.425Z,0.64
2019-04-14T00:53:20.843Z,0.66
2019-04-14T00:54:21.725Z,0.68
2019-04-14T00:55:20.633Z,0.70
2019-04-14T00:56:21.504Z,0.73
2019-04-14T00:57:20.598Z,0.76
2019-04-14T00:58:21.467Z,0.78
2019-04-14T00:59:20.575Z,0.82
2019-04-14T01:00:21.869Z,0.88
2019-04-14T01:01:20.539Z,0.91
2019-04-14T01:02:21.073Z,0.94
2019-04-14T01:03:20.528Z,0.94
2019-04-14T01:04:20.836Z,0.99
2019-04-14T01:05:21.662Z,1.00
2019-04-14T01:06:20.828Z,1.07
2019-04-14T01:07:21.554Z,1.10
2019-04-14T01:08:20.657Z,1.10
2019-04-14T01:09:21.565Z,1.10
2019-04-14T01:10:21.313Z,1.13
2019-04-14T01:11:20.436Z,1.14
2019-04-14T01:12:21.365Z,1.16
2019-04-14T01:13:20.420Z,1.16
2019-04-14T01:14:21.274Z,1.13
2019-04-14T01:15:20.434Z,1.14
2019-04-14T01:16:23.424Z,1.16
2019-04-14T01:17:20.375Z,1.20
2019-04-14T01:18:21.227Z,1.20
2019-04-14T01:19:20.358Z,1.20
2019-04-14T01:20:21.112Z,1.20
2019-04-14T01:21:20.349Z,1.21
2019-04-14T01:22:20.584Z,1.22
2019-04-14T01:23:21.452Z,1.22
2019-04-14T01:24:20.691Z,1.22
2019-04-14T01:25:21.437Z,1.21
2019-04-14T01:26:20.391Z,1.24
2019-04-14T01:27:21.102Z,1.24
2019-04-14T01:28:20.279Z,1.24
2019-04-14T01:29:20.937Z,1.24
2019-04-14T01:30:20.240Z,1.24
2019-04-14T01:31:20.623Z,1.22
2019-04-14T01:32:20.210Z,1.24
2019-04-14T01:33:20.586Z,1.22
2019-04-14T01:34:20.182Z,1.21
2019-04-14T01:35:20.336Z,1.18
2019-04-14T01:36:21.217Z,1.18
2019-04-14T01:37:20.209Z,1.20
2019-04-14T01:38:21.191Z,1.20
2019-04-14T01:39:20.140Z,1.20
2019-04-14T01:40:20.679Z,1.16
2019-04-14T01:41:20.126Z,1.18
2019-04-14T01:42:20.310Z,1.14
2019-04-14T01:43:21.257Z,1.16
2019-04-14T01:44:20.085Z,1.16
2019-04-14T01:45:21.081Z,1.14
2019-04-14T01:46:24.710Z,1.14
2019-04-14T01:47:21.038Z,1.12
2019-04-14T01:48:20.044Z,1.10
2019-04-14T01:49:20.381Z,1.10
2019-04-14T01:50:21.199Z,1.07
2019-04-14T01:51:20.283Z,1.09
2019-04-14T01:52:20.983Z,1.07
2019-04-14T01:53:20.776Z,1.09
2019-04-14T01:54:19.974Z,1.10
2019-04-14T01:55:20.168Z,1.10
2019-04-14T01:56:20.868Z,1.10
2019-04-14T01:57:20.024Z,1.14
2019-04-14T01:58:20.776Z,1.18
2019-04-14T01:59:19.933Z,1.16
2019-04-14T02:00:20.782Z,1.18
2019-04-14T02:01:19.907Z,1.20
2019-04-14T02:02:20.554Z,1.21
2019-04-14T02:03:19.880Z,1.22
2019-04-14T02:04:20.354Z,1.22
2019-04-14T02:05:19.906Z,1.21
2019-04-14T02:06:20.169Z,1.21
2019-04-14T02:07:20.986Z,1.22
2019-04-14T02:08:19.911Z,1.21
2019-04-14T02:09:20.877Z,1.22
2019-04-14T02:10:19.838Z,1.25
2019-04-14T02:11:20.569Z,1.22
2019-04-14T02:12:19.781Z,1.27
2019-04-14T02:13:20.339Z,1.28
2019-04-14T02:14:19.761Z,1.30
2019-04-14T02:15:20.036Z,1.34
2019-04-14T02:16:30.464Z,1.34
2019-04-14T02:17:21.933Z,1.36
2019-04-14T02:18:20.847Z,1.32
2019-04-14T02:19:19.898Z,1.31
2019-04-14T02:20:20.746Z,1.27
2019-04-14T02:21:19.709Z,1.25
2019-04-14T02:22:20.302Z,1.21
2019-04-14T02:23:19.682Z,1.20
2019-04-14T02:24:19.991Z,1.13
2019-04-14T02:25:20.928Z,1.10
2019-04-14T02:26:19.795Z,1.07
2019-04-14T02:27:20.929Z,1.03
2019-04-14T02:28:19.898Z,1.02
2019-04-14T02:29:19.612Z,1.00
2019-04-14T02:30:23.058Z,0.99
2019-04-14T02:31:39.436Z,0.99
2019-04-14T02:32:50.973Z,0.96
2019-04-14T02:33:44.427Z,0.95
2019-04-14T02:35:55.300Z,0.91
2019-04-14T02:36:52.397Z,0.88
2019-04-14T02:40:21.724Z,0.92
2019-04-14T02:40:55.983Z,0.94
2019-04-14T02:42:46.434Z,0.92
2019-04-14T02:43:52.305Z,0.92
2019-04-14T02:44:57.732Z,0.96
2019-04-14T02:45:52.028Z,1.00
2019-04-14T02:47:12.955Z,1.03
2019-04-14T02:48:52.845Z,1.04
2019-04-14T02:50:48.332Z,1.09
2019-04-14T02:52:53.677Z,1.14
2019-04-14T02:53:49.794Z,1.18
2019-04-14T02:54:55.272Z,1.21
2019-04-14T02:55:50.914Z,1.20
2019-04-14T02:56:44.802Z,1.22
2019-04-14T02:57:49.358Z,1.21
2019-04-14T02:59:00.025Z,1.20
2019-04-14T03:00:48.143Z,1.16
2019-04-14T03:02:20.213Z,1.14
2019-04-14T03:02:44.131Z,1.09
2019-04-14T03:03:43.469Z,1.07
2019-04-14T03:06:52.204Z,1.06
2019-04-14T03:07:45.938Z,1.04
2019-04-14T03:08:52.096Z,1.03
2019-04-14T03:09:53.773Z,1.04
2019-04-14T03:10:51.527Z,1.07
2019-04-14T03:11:48.988Z,1.07
2019-04-14T03:12:54.627Z,1.06
2019-04-14T03:13:45.896Z,1.06
2019-04-14T03:14:48.013Z,1.06
2019-04-14T03:15:48.217Z,1.06
2019-04-14T03:16:58.439Z,1.07
2019-04-14T03:17:47.355Z,1.07
2019-04-14T03:18:44.684Z,1.06
2019-04-14T03:19:56.407Z,1.10
2019-04-14T03:20:40.038Z,1.10
2019-04-14T03:22:49.925Z,1.09
2019-04-14T03:23:48.638Z,1.07
2019-04-14T03:24:37.436Z,1.06
2019-04-14T03:25:34.298Z,1.07
2019-04-14T03:27:49.940Z,1.12
2019-04-14T03:29:43.134Z,1.14
2019-04-14T03:32:17.380Z,1.14
2019-04-14T03:34:50.068Z,1.18
2019-04-14T03:37:59.259Z,1.25
2019-04-14T03:38:53.273Z,1.25
2019-04-14T03:39:45.993Z,1.27
2019-04-14T03:41:45.264Z,1.28
2019-04-14T03:42:54.013Z,1.27
2019-04-14T03:43:41.344Z,1.30
2019-04-14T03:44:48.932Z,1.28
2019-04-14T03:45:50.808Z,1.30
2019-04-14T03:47:42.129Z,1.30
2019-04-14T03:49:45.196Z,1.34
2019-04-14T03:50:44.327Z,1.39
2019-04-14T03:51:59.607Z,1.39
2019-04-14T03:52:50.081Z,1.38
2019-04-14T03:53:41.302Z,1.34
2019-04-14T03:54:40.552Z,1.36
2019-04-14T03:55:33.210Z,1.38
2019-04-14T03:56:21.208Z,1.34
2019-04-14T03:57:19.317Z,1.36
2019-04-14T03:58:18.674Z,1.34
2019-04-14T03:59:19.652Z,1.36
2019-04-14T04:00:18.661Z,1.39
2019-04-14T04:01:19.330Z,1.36
2019-04-14T04:02:18.612Z,1.36
2019-04-14T04:03:19.622Z,1.31
2019-04-14T04:04:18.587Z,1.31
2019-04-14T04:05:19.471Z,1.32
2019-04-14T04:06:18.616Z,1.32
2019-04-14T04:07:19.233Z,1.28
2019-04-14T04:08:18.557Z,1.27
2019-04-14T04:09:19.276Z,1.25
2019-04-14T04:10:18.543Z,1.25
2019-04-14T04:11:19.357Z,1.24
2019-04-14T04:12:18.488Z,1.25
2019-04-14T04:13:19.388Z,1.25
2019-04-14T04:14:18.482Z,1.25
2019-04-14T04:15:19.223Z,1.24
2019-04-14T04:16:18.483Z,1.25
2019-04-14T04:17:18.995Z,1.27
2019-04-14T04:18:18.444Z,1.27
2019-04-14T04:19:19.732Z,1.24
2019-04-14T04:20:19.551Z,1.22
2019-04-14T04:21:18.471Z,1.22
2019-04-14T04:22:19.324Z,1.25
2019-04-14T04:23:18.458Z,1.25
2019-04-14T04:24:19.239Z,1.25
2019-04-14T04:25:18.378Z,1.24
2019-04-14T04:26:19.096Z,1.22
2019-04-14T04:27:18.339Z,1.24
2019-04-14T04:28:18.834Z,1.22
2019-04-14T04:29:18.317Z,1.24
2019-04-14T04:30:18.662Z,1.24
2019-04-14T04:31:18.306Z,1.21
2019-04-14T04:32:18.627Z,1.21
2019-04-14T04:33:18.298Z,1.22
2019-04-14T04:34:18.392Z,1.20
2019-04-14T04:35:18.266Z,1.12
2019-04-14T04:36:18.250Z,1.02
2019-04-14T04:37:19.260Z,0.95
2019-04-14T04:38:18.231Z,0.92
2019-04-14T04:39:19.276Z,0.96
2019-04-14T04:40:18.196Z,0.96
2019-04-14T04:41:18.979Z,0.96
2019-04-14T04:42:18.175Z,1.03
2019-04-14T04:43:19.031Z,1.06
2019-04-14T04:44:18.180Z,1.02
2019-04-14T04:45:19.147Z,0.99
2019-04-14T04:46:18.178Z,0.96
2019-04-14T04:47:18.796Z,0.96
2019-04-14T04:48:18.112Z,0.95
2019-04-14T04:49:21.796Z,0.96
2019-04-14T04:50:19.304Z,0.96
2019-04-14T04:51:18.241Z,0.99
2019-04-14T04:52:19.104Z,1.04
2019-04-14T04:53:18.166Z,1.04
2019-04-14T04:54:18.921Z,1.06
2019-04-14T04:55:18.046Z,1.03
2019-04-14T04:56:18.683Z,0.99
2019-04-14T04:57:18.013Z,0.95
2019-04-14T04:58:18.000Z,0.95
2019-04-14T04:59:18.939Z,0.95
2019-04-14T05:00:17.987Z,0.95
2019-04-14T05:01:18.821Z,0.95
2019-04-14T05:02:17.976Z,0.91
2019-04-14T05:03:18.999Z,0.95
2019-04-14T05:04:17.953Z,0.95
2019-04-14T05:05:18.778Z,0.94
2019-04-14T05:06:20.873Z,0.92
2019-04-14T05:07:18.784Z,0.95
2019-04-14T05:08:17.903Z,0.99
2019-04-14T05:09:18.860Z,0.95
2019-04-14T05:10:17.913Z,0.99
2019-04-14T05:11:18.701Z,1.00
2019-04-14T05:12:17.879Z,1.03
2019-04-14T05:13:18.396Z,1.02
2019-04-14T05:14:17.851Z,0.99
2019-04-14T05:15:18.348Z,0.99
2019-04-14T05:16:17.836Z,1.02
2019-04-14T05:17:19.043Z,1.03
2019-04-14T05:18:17.891Z,1.03
2019-04-14T05:19:25.781Z,1.02
2019-04-14T05:20:18.773Z,1.00
2019-04-14T05:21:17.784Z,1.00
2019-04-14T05:22:19.267Z,1.02
2019-04-14T05:23:19.006Z,1.02
2019-04-14T05:24:17.963Z,1.04
2019-04-14T05:25:18.885Z,1.04
2019-04-14T05:26:17.877Z,1.00
2019-04-14T05:27:18.823Z,1.03
2019-04-14T05:28:17.859Z,1.03
2019-04-14T05:29:18.883Z,1.03
2019-04-14T05:30:17.670Z,1.03
2019-04-14T05:31:18.599Z,1.02
2019-04-14T05:32:17.659Z,0.95
2019-04-14T05:33:18.568Z,0.92
2019-04-14T05:34:17.638Z,0.91
2019-04-14T05:35:18.419Z,0.91
2019-04-14T05:36:17.635Z,0.94
2019-04-14T05:37:18.257Z,0.96
2019-04-14T05:38:17.595Z,0.99
2019-04-14T05:39:17.790Z,0.99
2019-04-14T05:40:18.791Z,1.02
2019-04-14T05:41:17.977Z,1.04
2019-04-14T05:42:20.176Z,1.04
2019-04-14T05:43:31.272Z,1.04
2019-04-14T05:44:18.659Z,1.04
2019-04-14T05:45:17.713Z,1.06
2019-04-14T05:46:18.467Z,1.10
2019-04-14T05:47:17.615Z,1.16
2019-04-14T05:48:18.252Z,1.18
2019-04-14T05:49:28.619Z,1.16
2019-04-14T05:50:18.439Z,1.20
2019-04-14T05:51:20.160Z,1.21
2019-04-14T05:52:18.416Z,1.21
2019-04-14T05:53:17.570Z,1.21
2019-04-14T05:54:18.461Z,1.25
2019-04-14T05:55:17.652Z,1.25
2019-04-14T05:56:18.543Z,1.22
2019-04-14T05:57:17.687Z,1.22
2019-04-14T05:58:18.490Z,1.22
2019-04-14T05:59:17.722Z,1.25
2019-04-14T06:00:17.363Z,1.28
2019-04-14T06:01:18.166Z,1.30
2019-04-14T06:02:18.049Z,1.28
2019-04-14T06:03:17.329Z,1.30
2019-04-14T06:04:17.832Z,1.32
2019-04-14T06:05:17.313Z,1.39
2019-04-14T06:06:17.302Z,1.36
2019-04-14T06:07:17.305Z,1.38
2019-04-14T06:08:17.278Z,1.42
2019-04-14T06:09:17.244Z,1.43
2019-04-14T06:10:17.252Z,1.49
2019-04-14T06:11:17.247Z,1.53
2019-04-14T06:12:17.269Z,1.57
2019-04-14T06:13:17.220Z,1.60
2019-04-14T06:14:17.194Z,1.60
2019-04-14T06:15:17.217Z,1.61
2019-04-14T06:16:17.171Z,1.63
2019-04-14T06:17:17.231Z,1.64
2019-04-14T06:18:17.160Z,1.61
2019-04-14T06:19:17.174Z,1.56
2019-04-14T06:20:17.132Z,1.52
2019-04-14T06:21:17.147Z,1.56
2019-04-14T06:22:17.145Z,1.53
2019-04-14T06:23:17.101Z,1.52
2019-04-14T06:24:17.101Z,1.56
2019-04-14T06:25:17.129Z,1.60
2019-04-14T06:26:17.079Z,1.64
2019-04-14T06:27:17.110Z,1.71
2019-04-14T06:28:17.099Z,1.70
2019-04-14T06:29:17.035Z,1.66
2019-04-14T06:30:17.049Z,1.63
2019-04-14T06:31:17.023Z,1.60
2019-04-14T06:32:17.041Z,1.63
2019-04-14T06:33:17.016Z,1.61
2019-04-14T06:34:17.003Z,1.58
2019-04-14T06:35:16.990Z,1.53
2019-04-14T06:36:16.983Z,1.57
2019-04-14T06:37:16.974Z,1.53
2019-04-14T06:38:16.973Z,1.53
2019-04-14T06:39:16.962Z,1.56
2019-04-14T06:40:16.941Z,1.61
2019-04-14T06:41:16.925Z,1.71
2019-04-14T06:42:16.938Z,1.84
2019-04-14T06:43:16.918Z,1.95
2019-04-14T06:44:16.906Z,1.95
2019-04-14T06:45:16.882Z,2.00
2019-04-14T06:46:16.862Z,2.04
2019-04-14T06:47:16.932Z,2.04
2019-04-14T06:48:16.857Z,2.14
2019-04-14T06:49:16.846Z,2.26
2019-04-14T06:50:16.817Z,2.28
2019-04-14T06:51:16.837Z,2.34
2019-04-14T06:52:16.827Z,2.46
2019-04-14T06:53:16.785Z,2.54
2019-04-14T06:54:16.796Z,2.69
2019-04-14T06:55:16.777Z,2.80
2019-04-14T06:56:16.773Z,2.90
2019-04-14T06:57:16.762Z,2.97
2019-04-14T06:58:16.767Z,3.09
2019-04-14T06:59:16.725Z,3.09
2019-04-14T07:00:16.738Z,3.06
2019-04-14T07:01:16.689Z,3.05
2019-04-14T07:02:16.712Z,3.08
2019-04-14T07:03:16.698Z,2.98
2019-04-14T07:04:16.699Z,2.97
2019-04-14T07:05:16.656Z,2.97
2019-04-14T07:06:16.651Z,2.91
2019-04-14T07:07:16.667Z,2.85
2019-04-14T07:08:16.626Z,2.64
2019-04-14T07:09:16.632Z,2.68
2019-04-14T07:10:16.650Z,2.76
2019-04-14T07:11:16.595Z,2.88
2019-04-14T07:12:16.721Z,2.97
2019-04-14T07:13:19.307Z,2.97
2019-04-14T07:14:16.554Z,2.95
2019-04-14T07:15:16.580Z,2.79
2019-04-14T07:16:16.555Z,2.88
2019-04-14T07:17:16.585Z,3.01
2019-04-14T07:18:16.515Z,3.11
2019-04-14T07:19:16.519Z,3.01
2019-04-14T07:20:16.511Z,3.09
2019-04-14T07:21:16.505Z,3.11
2019-04-14T07:22:16.517Z,3.12
2019-04-14T07:23:16.467Z,3.08
2019-04-14T07:24:16.446Z,3.01
2019-04-14T07:25:16.466Z,3.00
2019-04-14T07:26:16.437Z,3.06
2019-04-14T07:27:16.457Z,3.18
2019-04-14T07:28:16.429Z,3.29
2019-04-14T07:29:16.400Z,3.46
2019-04-14T07:30:16.396Z,3.61
2019-04-14T07:31:16.382Z,3.85
2019-04-14T07:32:16.394Z,4.12
2019-04-14T07:33:16.357Z,4.39
2019-04-14T07:34:16.361Z,4.28
2019-04-14T07:35:16.350Z,4.38
2019-04-14T07:36:16.449Z,4.27
2019-04-14T07:37:18.944Z,4.13
2019-04-14T07:38:16.339Z,4.02
2019-04-14T07:39:16.367Z,3.99
2019-04-14T07:40:16.270Z,4.09
2019-04-14T07:41:16.283Z,4.04
2019-04-14T07:42:16.307Z,4.27
2019-04-14T07:43:16.254Z,4.32
2019-04-14T07:44:16.251Z,4.39
2019-04-14T07:45:16.257Z,4.56
2019-04-14T07:46:16.251Z,4.74
2019-04-14T07:47:16.232Z,4.83
2019-04-14T07:48:16.215Z,4.95
2019-04-14T07:49:16.238Z,5.04
2019-04-14T07:50:16.228Z,5.13
2019-04-14T07:51:16.252Z,5.29
2019-04-14T07:52:16.211Z,5.51
2019-04-14T07:53:16.214Z,5.69
2019-04-14T07:54:16.221Z,5.52
2019-04-14T07:55:16.152Z,5.58
2019-04-14T07:56:16.161Z,5.55
2019-04-14T07:57:16.388Z,5.92
2019-04-14T07:58:16.130Z,6.01
2019-04-14T07:59:16.323Z,6.26
2019-04-14T08:00:16.208Z,6.52
2019-04-14T08:01:16.082Z,6.92
2019-04-14T08:02:16.083Z,6.96
2019-04-14T08:03:16.227Z,7.15
2019-04-14T08:04:16.113Z,7.47
2019-04-14T08:05:15.998Z,7.64
2019-04-14T08:06:16.110Z,7.61
2019-04-14T08:07:16.215Z,7.96
2019-04-14T08:08:16.049Z,8.50
2019-04-14T08:09:16.151Z,8.49
2019-04-14T08:10:15.987Z,8.79
2019-04-14T08:11:15.969Z,9.02
2019-04-14T08:12:16.025Z,8.61
2019-04-14T08:13:15.999Z,8.74
2019-04-14T08:14:15.948Z,8.64
2019-04-14T08:15:15.995Z,8.31
2019-04-14T08:16:16.038Z,7.98
2019-04-14T08:17:15.966Z,8.05
2019-04-14T08:18:15.938Z,8.45
2019-04-14T08:19:15.938Z,9.36
2019-04-14T08:20:26.781Z,10.03
2019-04-14T08:21:16.902Z,10.98
2019-04-14T08:22:15.867Z,11.74
2019-04-14T08:23:15.867Z,11.53
2019-04-14T08:24:15.814Z,11.25
2019-04-14T08:25:15.912Z,11.05
2019-04-14T08:26:15.985Z,10.87
2019-04-14T08:27:15.905Z,10.83
2019-04-14T08:28:15.821Z,10.53
2019-04-14T08:29:15.931Z,10.86
2019-04-14T08:30:15.833Z,11.43
2019-04-14T08:31:15.921Z,12.45
2019-04-14T08:32:15.809Z,12.99
2019-04-14T08:33:15.943Z,12.88
2019-04-14T08:34:15.762Z,12.76
2019-04-14T08:35:15.843Z,12.44
2019-04-14T08:36:15.711Z,12.10
2019-04-14T08:37:15.809Z,12.37
2019-04-14T08:38:15.787Z,12.72
2019-04-14T08:39:15.649Z,11.83
2019-04-14T08:40:15.735Z,11.13
2019-04-14T08:41:15.744Z,10.90
2019-04-14T08:42:15.681Z,10.59
2019-04-14T08:43:15.824Z,10.27
2019-04-14T08:44:15.608Z,9.72
2019-04-14T08:45:15.658Z,9.62
2019-04-14T08:46:15.938Z,10.58
2019-04-14T08:47:15.835Z,10.72
2019-04-14T08:48:15.827Z,11.60
2019-04-14T08:49:15.860Z,12.63
2019-04-14T08:50:15.682Z,12.61
2019-04-14T08:51:15.624Z,11.56
2019-04-14T08:52:15.826Z,10.89
2019-04-14T08:53:15.749Z,12.25
2019-04-14T08:54:15.625Z,12.63
2019-04-14T08:55:15.642Z,11.77
2019-04-14T08:56:15.564Z,12.35
2019-04-14T08:57:15.592Z,13.39
2019-04-14T08:58:15.485Z,13.94
2019-04-14T08:59:15.416Z,14.31
2019-04-14T09:00:15.511Z,14.90
2019-04-14T09:01:15.439Z,13.87
2019-04-14T09:02:15.447Z,14.38
2019-04-14T09:03:15.430Z,14.48
2019-04-14T09:04:15.417Z,14.74
2019-04-14T09:05:15.374Z,15.26
2019-04-14T09:06:15.504Z,13.78
2019-04-14T09:07:15.379Z,12.65
2019-04-14T09:08:15.471Z,13.01
2019-04-14T09:09:15.341Z,11.88
2019-04-14T09:10:15.313Z,12.50
2019-04-14T09:11:15.320Z,12.15
2019-04-14T09:12:16.206Z,11.55
2019-04-14T09:13:15.314Z,11.49
2019-04-14T09:14:15.317Z,12.80
2019-04-14T09:15:15.263Z,12.88
2019-04-14T09:16:15.243Z,12.75
2019-04-14T09:17:15.257Z,12.36
2019-04-14T09:18:15.375Z,12.29
2019-04-14T09:19:15.268Z,12.87
2019-04-14T09:20:15.246Z,13.40
2019-04-14T09:21:15.188Z,12.66
2019-04-14T09:22:15.270Z,13.13
2019-04-14T09:23:15.328Z,13.75
2019-04-14T09:24:15.166Z,13.58
2019-04-14T09:25:15.229Z,14.12
2019-04-14T09:26:15.169Z,14.05
2019-04-14T09:27:15.131Z,13.79
2019-04-14T09:28:15.123Z,13.03
2019-04-14T09:29:15.159Z,12.43
2019-04-14T09:30:15.133Z,12.03
2019-04-14T09:31:15.070Z,11.62
2019-04-14T09:32:15.105Z,11.41
2019-04-14T09:33:15.090Z,11.31
2019-04-14T09:34:15.143Z,11.19
2019-04-14T09:35:15.126Z,11.04
2019-04-14T09:36:15.111Z,11.01
2019-04-14T09:37:15.135Z,10.80
2019-04-14T09:38:15.123Z,10.31
2019-04-14T09:39:15.030Z,11.45
2019-04-14T09:40:15.024Z,12.72
2019-04-14T09:41:14.997Z,13.30
2019-04-14T09:42:14.992Z,13.94
2019-04-14T09:43:15.005Z,14.49
2019-04-14T09:44:14.919Z,14.58
2019-04-14T09:45:14.931Z,14.16
2019-04-14T09:46:14.935Z,14.11
2019-04-14T09:47:14.895Z,14.37
2019-04-14T09:48:14.935Z,13.79
2019-04-14T09:49:14.925Z,13.50
2019-04-14T09:50:14.869Z,12.54
2019-04-14T09:51:14.875Z,12.93
2019-04-14T09:52:14.849Z,12.65
2019-04-14T09:53:14.861Z,11.80
2019-04-14T09:54:14.880Z,11.52
2019-04-14T09:55:14.824Z,11.45
2019-04-14T09:56:14.820Z,11.45
2019-04-14T09:57:14.801Z,11.34
2019-04-14T09:58:14.833Z,11.73
2019-04-14T09:59:14.768Z,12.48
2019-04-14T10:00:14.751Z,12.29
2019-04-14T10:01:14.759Z,12.03
2019-04-14T10:02:14.762Z,11.89
2019-04-14T10:03:14.777Z,11.99
2019-04-14T10:04:14.709Z,13.24
2019-04-14T10:05:14.700Z,13.76
2019-04-14T10:06:14.715Z,12.86
2019-04-14T10:07:14.846Z,13.01
2019-04-14T10:08:14.703Z,13.68
2019-04-14T10:09:14.670Z,13.75
2019-04-14T10:10:14.661Z,14.12
2019-04-14T10:11:14.684Z,13.95
2019-04-14T10:12:14.666Z,14.77
2019-04-14T10:13:14.663Z,15.85
2019-04-14T10:14:14.622Z,16.72
2019-04-14T10:15:14.593Z,17.44
2019-04-14T10:16:14.612Z,17.93
2019-04-14T10:17:14.597Z,17.52
2019-04-14T10:18:14.582Z,16.82
2019-04-14T10:19:14.562Z,17.16
2019-04-14T10:20:14.547Z,17.46
2019-04-14T10:21:17.491Z,16.89
2019-04-14T10:22:14.530Z,16.65
2019-04-14T10:23:14.576Z,15.39
2019-04-14T10:24:14.491Z,14.63
2019-04-14T10:25:14.514Z,14.03
2019-04-14T10:26:14.478Z,13.42
2019-04-14T10:27:14.472Z,12.65
2019-04-14T10:28:14.470Z,12.48
2019-04-14T10:29:14.460Z,12.12
2019-04-14T10:30:14.441Z,12.02
2019-04-14T10:31:14.462Z,11.88
2019-04-14T10:32:14.412Z,11.67
2019-04-14T10:33:14.454Z,11.59
2019-04-14T10:34:14.412Z,11.58
2019-04-14T10:35:14.398Z,11.43
2019-04-14T10:36:14.414Z,11.18
2019-04-14T10:37:14.381Z,11.10
2019-04-14T10:38:14.385Z,10.61
2019-04-14T10:39:14.342Z,10.57
2019-04-14T10:40:14.309Z,10.53
2019-04-14T10:41:14.309Z,11.27
2019-04-14T10:42:14.292Z,12.36
2019-04-14T10:43:14.340Z,12.29
2019-04-14T10:44:14.312Z,12.21
2019-04-14T10:45:14.313Z,13.27
2019-04-14T10:46:14.308Z,14.34
2019-04-14T10:47:14.257Z,14.55
2019-04-14T10:48:14.323Z,14.62
2019-04-14T10:49:14.242Z,15.32
2019-04-14T10:50:14.261Z,16.10
2019-04-14T10:51:14.241Z,16.13
2019-04-14T10:52:14.189Z,16.43
2019-04-14T10:53:14.197Z,16.91
2019-04-14T10:54:14.192Z,17.01
2019-04-14T10:55:14.176Z,16.65
2019-04-14T10:56:14.146Z,17.04
2019-04-14T10:57:14.165Z,17.24
2019-04-14T10:58:14.198Z,17.60
2019-04-14T10:59:14.129Z,18.08
2019-04-14T11:00:14.188Z,17.71
2019-04-14T11:01:14.102Z,16.66
2019-04-14T11:02:14.162Z,16.24
2019-04-14T11:03:14.099Z,15.19
2019-04-14T11:04:14.097Z,14.38
2019-04-14T11:05:14.044Z,13.54
2019-04-14T11:06:14.097Z,12.91
2019-04-14T11:07:14.078Z,12.45
2019-04-14T11:08:14.050Z,12.55
2019-04-14T11:09:14.082Z,12.69
2019-04-14T11:10:14.080Z,13.30
2019-04-14T11:11:14.036Z,14.22
2019-04-14T11:12:14.004Z,15.32
2019-04-14T11:13:13.952Z,16.02
2019-04-14T11:14:13.974Z,16.82
2019-04-14T11:15:15.531Z,17.53
2019-04-14T11:16:13.942Z,17.79
2019-04-14T11:17:13.943Z,18.12
2019-04-14T11:18:13.960Z,18.24
2019-04-14T11:19:13.909Z,17.53
2019-04-14T11:20:13.891Z,17.46
2019-04-14T11:21:13.908Z,17.80
2019-04-14T11:22:13.882Z,18.26
2019-04-14T11:23:13.856Z,18.48
2019-04-14T11:24:13.907Z,18.00
2019-04-14T11:25:13.874Z,17.01
2019-04-14T11:26:13.827Z,17.24
2019-04-14T11:27:13.846Z,17.72
2019-04-14T11:28:13.801Z,17.68
2019-04-14T11:29:13.889Z,16.99
2019-04-14T11:30:13.812Z,16.28
2019-04-14T11:31:13.795Z,16.40
2019-04-14T11:32:13.819Z,15.85
2019-04-14T11:33:13.775Z,15.69
2019-04-14T11:34:13.812Z,16.26
2019-04-14T11:35:16.319Z,16.02
2019-04-14T11:36:13.763Z,15.94
2019-04-14T11:37:13.801Z,15.47
2019-04-14T11:38:13.757Z,15.75
2019-04-14T11:39:13.729Z,16.36
2019-04-14T11:40:13.711Z,17.02
2019-04-14T11:41:13.705Z,16.86
2019-04-14T11:42:13.710Z,16.16
2019-04-14T11:43:13.707Z,15.22
2019-04-14T11:44:13.739Z,14.55
2019-04-14T11:45:13.687Z,14.26
2019-04-14T11:46:13.676Z,14.22
2019-04-14T11:47:16.152Z,14.07
2019-04-14T11:48:13.661Z,13.70
2019-04-14T11:49:13.684Z,13.67
2019-04-14T11:50:13.618Z,13.39
2019-04-14T11:51:13.566Z,13.13
2019-04-14T11:52:13.627Z,12.91
2019-04-14T11:53:13.528Z,12.75
2019-04-14T11:54:13.560Z,12.57
2019-04-14T11:55:13.521Z,12.35
2019-04-14T11:56:13.499Z,12.39
2019-04-14T11:57:13.500Z,12.32
2019-04-14T11:58:13.533Z,12.44
2019-04-14T11:59:13.531Z,12.55
2019-04-14T12:00:13.473Z,12.84
2019-04-14T12:01:13.461Z,13.28
2019-04-14T12:02:13.450Z,13.39
2019-04-14T12:03:13.483Z,13.49
2019-04-14T12:04:13.457Z,13.57
2019-04-14T12:05:13.463Z,13.12
2019-04-14T12:06:13.427Z,12.65
2019-04-14T12:07:13.384Z,12.36
2019-04-14T12:08:13.417Z,11.97
2019-04-14T12:09:13.398Z,12.21
2019-04-14T12:10:13.374Z,12.62
2019-04-14T12:11:13.323Z,12.70
2019-04-14T12:12:13.330Z,12.94
2019-04-14T12:13:13.328Z,12.78
2019-04-14T12:14:13.363Z,12.81
2019-04-14T12:15:16.663Z,12.87
2019-04-14T12:16:13.305Z,12.93
2019-04-14T12:17:13.311Z,13.20
2019-04-14T12:18:13.267Z,13.39
2019-04-14T12:19:13.314Z,13.57
2019-04-14T12:20:13.297Z,13.65
2019-04-14T12:21:13.244Z,13.68
2019-04-14T12:22:13.252Z,13.73
2019-04-14T12:23:15.938Z,13.87
2019-04-14T12:24:13.235Z,13.70
2019-04-14T12:25:13.239Z,13.33
2019-04-14T12:26:13.187Z,13.37
2019-04-14T12:27:13.162Z,13.50
2019-04-14T12:28:13.598Z,13.55
2019-04-14T12:29:14.135Z,13.36
2019-04-14T12:30:13.688Z,12.93
2019-04-14T12:31:13.180Z,12.75
2019-04-14T12:32:13.110Z,12.66
2019-04-14T12:33:13.166Z,12.57
2019-04-14T12:34:13.139Z,12.55
2019-04-14T12:35:13.170Z,12.63
2019-04-14T12:36:13.102Z,12.91
2019-04-14T12:37:13.111Z,12.91
2019-04-14T12:38:13.098Z,12.95
2019-04-14T12:39:13.075Z,13.11
2019-04-14T12:40:13.062Z,13.36
2019-04-14T12:41:13.038Z,13.46
2019-04-14T12:42:13.035Z,13.62
2019-04-14T12:43:13.009Z,13.83
2019-04-14T12:44:13.064Z,13.87
2019-04-14T12:45:13.096Z,13.11
2019-04-14T12:46:12.971Z,12.65
2019-04-14T12:47:12.972Z,12.54
2019-04-14T12:48:12.949Z,12.44
2019-04-14T12:49:12.975Z,12.28
2019-04-14T12:50:12.949Z,12.02
2019-04-14T12:51:13.088Z,12.21
2019-04-14T12:52:21.077Z,12.28
2019-04-14T12:53:13.919Z,12.36
2019-04-14T12:54:14.013Z,12.48
2019-04-14T12:55:12.882Z,12.70
2019-04-14T12:56:12.932Z,12.86
2019-04-14T12:57:12.901Z,12.90
2019-04-14T12:58:12.827Z,13.09
2019-04-14T12:59:12.918Z,13.28
2019-04-14T13:00:12.811Z,13.40
2019-04-14T13:01:12.824Z,13.50
2019-04-14T13:02:12.801Z,13.62
2019-04-14T13:03:12.776Z,13.75
2019-04-14T13:04:12.798Z,13.75
2019-04-14T13:05:12.768Z,13.62
2019-04-14T13:06:12.758Z,13.28
2019-04-14T13:07:12.777Z,13.08
2019-04-14T13:08:12.756Z,12.90
2019-04-14T13:09:14.562Z,12.73
2019-04-14T13:10:12.734Z,12.61
2019-04-14T13:11:12.717Z,12.55
2019-04-14T13:12:12.731Z,12.70
2019-04-14T13:13:12.674Z,12.63
2019-04-14T13:14:12.688Z,12.55
2019-04-14T13:15:12.654Z,12.70
2019-04-14T13:16:12.637Z,12.80
2019-04-14T13:17:12.628Z,12.70
2019-04-14T13:18:12.621Z,12.55
2019-04-14T13:19:12.631Z,12.37
2019-04-14T13:20:12.586Z,12.29
2019-04-14T13:21:12.581Z,12.26
2019-04-14T13:22:12.573Z,12.30
2019-04-14T13:23:12.590Z,12.37
2019-04-14T13:24:12.617Z,12.32
2019-04-14T13:25:12.515Z,12.14
2019-04-14T13:26:12.520Z,12.03
2019-04-14T13:27:12.536Z,12.10
2019-04-14T13:28:12.566Z,12.11
2019-04-14T13:29:12.573Z,12.26